Time;durP1;ratioP1;P1;durP2;ratioP2;P2;SDS_P1;SDS_P2;PMS_P1;PMS_P2;Temp;Humidity;BMP_temperature;BMP_pressure;BME280_temperature;BME280_humidity;BME280_pressure;Samples;Min_cycle;Max_cycle;Signal;HPM_P1;HPM_P2
2021/11/10 00:01:08;;;;;;;14.73;11.70;;;;;;;7.71;79.80;96025.13;828088;71;30395;-79
2021/11/10 00:16:09;;;;;;;12.30;10.35;;;;;;;7.78;77.64;96024.45;827927;71;30371;-79
2021/11/10 00:31:09;;;;;;;19.87;15.20;;;;;;;7.70;77.67;96036.06;827589;71;30181;-80
2021/11/10 00:46:08;;;;;;;7.75;6.58;;;;;;;7.21;76.24;96027.20;833897;71;29761;-80
2021/11/10 01:01:15;;;;;;;10.88;7.92;;;;;;;6.52;78.33;96024.31;833413;71;32699;-80
2021/11/10 01:16:14;;;;;;;5.87;5.28;;;;;;;5.82;79.88;96030.05;827909;71;32697;-81
2021/11/10 01:31:08;;;;;;;4.72;4.12;;;;;;;5.48;81.87;96036.13;827943;71;29651;-80
2021/11/10 01:46:12;;;;;;;3.95;3.52;;;;;;;5.20;83.22;96046.50;834214;71;31862;-79
2021/11/10 02:01:15;;;;;;;4.90;4.50;;;;;;;5.74;81.89;96034.25;833957;71;32784;-81
2021/11/10 02:16:12;;;;;;;4.30;3.90;;;;;;;5.59;81.47;96031.48;827819;71;32050;-81
2021/11/10 02:31:14;;;;;;;5.15;4.08;;;;;;;5.46;82.83;96043.88;833797;71;32722;-81
2021/11/10 02:46:09;;;;;;;5.47;4.70;;;;;;;5.46;82.93;96050.38;827917;71;31014;-79
2021/11/10 03:16:08;;;;;;;5.45;4.35;;;;;;;5.45;83.40;96053.98;834759;71;29736;-81
2021/11/10 03:31:14;;;;;;;5.15;4.62;;;;;;;5.28;82.91;96061.05;827515;71;33262;-82
2021/11/10 03:46:08;;;;;;;4.75;4.20;;;;;;;5.14;81.74;96061.67;830169;70;29676;-81
2021/11/10 04:01:08;;;;;;;5.00;4.55;;;;;;;5.05;80.85;96071.25;828485;71;29659;-80
2021/11/10 04:16:20;;;;;;;6.60;4.50;;;;;;;4.93;80.77;96065.46;800844;74;32927;-76
2021/11/10 04:31:10;;;;;;;5.50;4.90;;;;;;;4.80;80.76;96071.54;827559;71;31609;-79
2021/11/10 04:46:31;;;;;;;6.37;5.75;;;;;;;4.73;80.47;96075.22;827627;71;32586;-82
2021/11/10 05:16:27;;;;;;;5.95;5.00;;;;;;;5.26;79.73;96087.80;824703;71;32811;-81
2021/11/10 05:31:15;;;;;;;7.20;5.65;;;;;;;5.57;76.43;96083.49;826979;71;32713;-79
2021/11/10 05:46:10;;;;;;;6.20;5.47;;;;;;;6.91;71.12;96101.67;827521;71;30617;-77
2021/11/10 06:01:29;;;;;;;7.92;6.35;;;;;;;7.09;68.66;96115.67;833662;71;32696;-77
2021/11/10 06:16:10;;;;;;;6.72;5.15;;;;;;;7.00;67.47;96142.61;827401;71;30151;-75
2021/11/10 06:31:09;;;;;;;5.75;4.65;;;;;;;7.04;66.95;96130.70;827504;71;31054;-76
2021/11/10 06:46:14;;;;;;;6.50;5.28;;;;;;;7.23;65.78;96131.41;827814;70;32781;-75
2021/11/10 07:01:09;;;;;;;8.28;5.50;;;;;;;7.67;64.85;96138.42;821974;71;30337;-78
2021/11/10 07:16:09;;;;;;;9.15;5.40;;;;;;;8.00;64.18;96137.02;828118;71;30279;-77
2021/11/10 07:31:15;;;;;;;8.03;5.70;;;;;;;8.29;63.60;96143.08;826807;71;32646;-77
2021/11/10 07:46:14;;;;;;;8.23;5.30;;;;;;;8.60;62.35;96131.94;827090;71;30372;-77
2021/11/10 08:01:11;;;;;;;7.10;5.80;;;;;;;8.96;62.14;96130.75;827716;71;30298;-77
2021/11/10 08:16:14;;;;;;;5.90;5.40;;;;;;;9.06;61.30;96136.64;827131;71;33278;-74
2021/11/10 08:31:12;;;;;;;6.30;4.60;;;;;;;;;;823790;71;32650;-76
2021/11/10 08:46:14;;;;;;;5.03;4.62;;;;;;;9.98;56.04;96104.45;826915;71;33157;-77
2021/11/10 09:16:24;;;;;;;6.92;4.35;;;;;;;10.68;54.03;96087.66;825446;71;32807;-81
2021/11/10 09:31:16;;;;;;;5.12;4.35;;;;;;;10.73;54.01;96075.91;820505;71;32897;-78
2021/11/10 09:46:14;;;;;;;5.00;4.60;;;;;;;10.76;53.99;96053.08;819662;71;33069;-79
2021/11/10 10:01:15;;;;;;;6.45;5.03;;;;;;;11.11;52.98;96039.95;818678;71;29871;-76
2021/11/10 10:16:10;;;;;;;5.67;5.00;;;;;;;11.19;52.68;96029.78;833414;71;30074;-77
2021/11/10 10:31:15;;;;;;;5.12;4.72;;;;;;;11.33;52.46;96010.92;823404;70;30375;-78
2021/11/10 10:46:10;;;;;;;6.25;5.17;;;;;;;11.26;51.83;95987.52;821935;71;30324;-78
2021/11/10 11:01:33;;;;;;;9.65;5.45;;;;;;;11.38;51.16;95982.06;827599;71;30220;-77
2021/11/10 11:16:20;;;;;;;5.20;4.65;;;;;;;11.06;51.97;95964.53;833587;71;33547;-77
2021/11/10 11:31:15;;;;;;;7.62;4.58;;;;;;;11.25;51.11;95956.23;823808;71;32908;-76
2021/11/10 11:46:09;;;;;;;4.90;4.33;;;;;;;11.56;50.63;95950.08;825757;71;30194;-77
2021/11/10 12:01:12;;;;;;;5.40;4.87;;;;;;;12.19;49.25;95948.69;826346;71;29793;-78
2021/11/10 12:16:18;;;;;;;5.20;4.67;;;;;;;11.71;49.61;95928.29;822480;70;30428;-77
2021/11/10 12:31:31;;;;;;;5.08;4.65;;;;;;;11.62;50.12;95926.70;819103;71;30395;-75
2021/11/10 12:46:13;;;;;;;5.40;4.90;;;;;;;11.34;51.00;95913.45;821276;70;29448;-78
2021/11/10 13:01:17;;;;;;;6.95;5.83;;;;;;;11.16;50.82;95909.42;817467;70;32853;-77
2021/11/10 13:16:18;;;;;;;5.58;5.08;;;;;;;10.72;52.58;95916.79;818929;71;32841;-76
2021/11/10 13:31:11;;;;;;;7.20;6.20;;;;;;;10.28;54.12;95911.20;817693;71;30032;-76
2021/11/10 13:46:13;;;;;;;8.15;5.67;;;;;;;10.10;55.14;95905.80;824646;71;33181;-76
2021/11/10 14:01:14;;;;;;;10.70;6.60;;;;;;;9.83;56.08;95900.06;816602;70;33260;-77
2021/11/10 14:16:09;;;;;;;7.72;6.92;;;;;;;;;;833625;70;30982;-75
2021/11/10 14:31:11;;;;;;;8.80;7.40;;;;;;;9.20;59.77;95907.50;827155;70;29685;-78
2021/11/10 14:46:23;;;;;;;11.00;7.40;;;;;;;8.79;61.29;95891.23;831340;70;31749;-77
2021/11/10 15:16:13;;;;;;;11.10;7.37;;;;;;;8.09;63.19;95879.47;815127;71;31080;-76
2021/11/10 15:31:16;;;;;;;8.15;6.42;;;;;;;7.88;63.76;95885.37;825942;71;31812;-76
2021/11/10 15:46:11;;;;;;;10.88;8.18;;;;;;;7.67;64.67;95889.46;831855;70;29493;-78
2021/11/10 16:01:17;;;;;;;11.35;8.75;;;;;;;7.51;65.49;95886.56;826038;71;31750;-78
2021/11/10 16:16:14;;;;;;;12.20;9.28;;;;;;;7.38;66.08;95885.02;823413;71;31903;-77
2021/11/10 16:46:36;;;;;;;13.93;9.05;;;;;;;7.30;66.67;95896.33;826881;71;32374;-83
2021/11/10 17:01:13;;;;;;;11.03;8.70;;;;;;;7.19;66.51;95909.17;822232;71;30989;-82
2021/11/10 17:16:21;;;;;;;13.98;8.53;;;;;;;7.00;66.88;95920.28;834547;71;31773;-84
2021/11/10 17:31:08;;;;;;;9.68;7.65;;;;;;;6.74;67.08;95913.73;834136;71;28424;-82
2021/11/10 17:46:36;;;;;;;7.92;6.85;;;;;;;6.42;66.89;95893.20;827508;71;31767;-88
2021/11/10 18:01:09;;;;;;;9.40;7.22;;;;;;;6.30;66.11;95891.09;833720;71;29006;-81
2021/11/10 18:16:15;;;;;;;9.98;7.47;;;;;;;6.08;65.12;95890.05;827720;71;31730;-84
2021/11/10 18:31:14;;;;;;;7.90;5.50;;;;;;;5.92;64.05;95889.66;827487;71;32581;-85
2021/11/10 21:16:12;;;;;;;7.30;6.42;;;;;;;6.08;58.86;95909.59;834879;71;32051;-82
2021/11/10 21:31:14;;;;;;;10.08;7.28;;;;;;;6.40;58.21;95910.88;829444;71;32577;-81
2021/11/10 21:46:10;;;;;;;16.00;11.68;;;;;;;6.50;59.77;95912.92;827944;71;29981;-83
2021/11/10 22:01:14;;;;;;;10.15;7.33;;;;;;;6.10;57.91;95908.86;833318;71;32705;-81
2021/11/10 22:16:11;;;;;;;9.73;7.95;;;;;;;5.85;59.52;95900.67;828409;71;31435;-82
2021/11/10 22:31:14;;;;;;;11.80;9.35;;;;;;;5.95;61.00;95890.53;834058;71;33356;-81
2021/11/10 22:46:18;;;;;;;13.15;9.08;;;;;;;6.09;60.67;95879.41;834584;71;32735;-82
2021/11/10 23:01:14;;;;;;;10.90;8.73;;;;;;;6.01;61.39;95871.40;827452;71;33178;-82
2021/11/10 23:16:14;;;;;;;11.85;9.30;;;;;;;6.01;61.30;95855.77;827508;71;33108;-82
2021/11/10 23:31:09;;;;;;;14.50;9.85;;;;;;;5.98;61.80;95865.84;828705;71;30582;-80
2021/11/10 23:46:09;;;;;;;17.07;11.05;;;;;;;5.87;62.00;95853.57;834348;71;29542;-80
